sensor_id;sensor_type;location;lat;lon;timestamp;P1;durP1;ratioP1;P2;durP2;ratioP2
7693;SDS011;3889;48.162;11.510;2023-03-31T00:01:20;7.80;;;5.55;;
7693;SDS011;3889;48.162;11.510;2023-03-31T00:03:49;6.38;;;5.45;;
7693;SDS011;3889;48.162;11.510;2023-03-31T00:06:17;8.32;;;5.57;;
7693;SDS011;3889;48.162;11.510;2023-03-31T00:08:46;7.07;;;5.25;;
7693;SDS011;3889;48.162;11.510;2023-03-31T00:11:17;6.22;;;4.97;;
7693;SDS011;3889;48.162;11.510;2023-03-31T00:13:46;7.68;;;5.78;;
7693;SDS011;3889;48.162;11.510;2023-03-31T00:16:14;7.40;;;5.60;;
7693;SDS011;3889;48.162;11.510;2023-03-31T00:18:41;6.50;;;5.60;;
7693;SDS011;3889;48.162;11.510;2023-03-31T00:21:13;6.72;;;5.88;;
7693;SDS011;3889;48.162;11.510;2023-03-31T00:23:53;6.20;;;5.38;;
7693;SDS011;3889;48.162;11.510;2023-03-31T00:26:22;7.05;;;5.78;;
7693;SDS011;3889;48.162;11.510;2023-03-31T00:28:51;6.93;;;5.88;;
7693;SDS011;3889;48.162;11.510;2023-03-31T00:31:20;6.72;;;5.40;;
7693;SDS011;3889;48.162;11.510;2023-03-31T00:33:48;6.25;;;5.50;;
7693;SDS011;3889;48.162;11.510;2023-03-31T00:36:17;6.80;;;5.60;;
7693;SDS011;3889;48.162;11.510;2023-03-31T00:38:53;7.18;;;6.07;;
7693;SDS011;3889;48.162;11.510;2023-03-31T00:41:24;7.20;;;5.57;;
7693;SDS011;3889;48.162;11.510;2023-03-31T00:44:00;6.10;;;5.50;;
7693;SDS011;3889;48.162;11.510;2023-03-31T00:46:33;7.65;;;5.97;;
7693;SDS011;3889;48.162;11.510;2023-03-31T00:49:04;7.50;;;6.13;;
7693;SDS011;3889;48.162;11.510;2023-03-31T00:51:41;7.00;;;5.93;;
7693;SDS011;3889;48.162;11.510;2023-03-31T00:54:11;6.88;;;5.85;;
7693;SDS011;3889;48.162;11.510;2023-03-31T00:56:40;6.28;;;5.65;;
7693;SDS011;3889;48.162;11.510;2023-03-31T00:59:13;8.75;;;6.40;;
7693;SDS011;3889;48.162;11.510;2023-03-31T01:01:42;7.13;;;6.13;;
7693;SDS011;3889;48.162;11.510;2023-03-31T01:04:12;7.35;;;6.15;;
7693;SDS011;3889;48.162;11.510;2023-03-31T01:06:43;7.33;;;5.90;;
7693;SDS011;3889;48.162;11.510;2023-03-31T01:09:19;7.57;;;6.00;;
7693;SDS011;3889;48.162;11.510;2023-03-31T01:11:47;7.22;;;5.90;;
7693;SDS011;3889;48.162;11.510;2023-03-31T01:14:15;7.83;;;5.87;;
7693;SDS011;3889;48.162;11.510;2023-03-31T01:16:43;6.30;;;5.70;;
7693;SDS011;3889;48.162;11.510;2023-03-31T01:19:12;7.43;;;5.93;;
7693;SDS011;3889;48.162;11.510;2023-03-31T01:25:07;7.13;;;5.72;;
7693;SDS011;3889;48.162;11.510;2023-03-31T01:27:55;7.30;;;6.17;;
7693;SDS011;3889;48.162;11.510;2023-03-31T01:30:42;7.13;;;6.38;;
7693;SDS011;3889;48.162;11.510;2023-03-31T01:33:46;7.85;;;5.90;;
7693;SDS011;3889;48.162;11.510;2023-03-31T01:42:35;6.60;;;5.85;;
7693;SDS011;3889;48.162;11.510;2023-03-31T01:45:09;7.57;;;5.90;;
7693;SDS011;3889;48.162;11.510;2023-03-31T01:47:45;7.57;;;6.33;;
7693;SDS011;3889;48.162;11.510;2023-03-31T01:50:21;6.22;;;5.50;;
7693;SDS011;3889;48.162;11.510;2023-03-31T01:52:55;7.80;;;5.80;;
7693;SDS011;3889;48.162;11.510;2023-03-31T01:55:32;6.30;;;5.70;;
7693;SDS011;3889;48.162;11.510;2023-03-31T01:58:04;7.35;;;5.65;;
7693;SDS011;3889;48.162;11.510;2023-03-31T02:00:37;6.40;;;5.30;;
7693;SDS011;3889;48.162;11.510;2023-03-31T02:03:10;6.30;;;5.70;;
7693;SDS011;3889;48.162;11.510;2023-03-31T02:05:43;7.43;;;5.72;;
7693;SDS011;3889;48.162;11.510;2023-03-31T02:08:15;6.75;;;5.65;;
7693;SDS011;3889;48.162;11.510;2023-03-31T02:10:49;9.38;;;5.95;;
7693;SDS011;3889;48.162;11.510;2023-03-31T02:13:19;7.57;;;5.85;;
7693;SDS011;3889;48.162;11.510;2023-03-31T02:15:50;7.10;;;5.88;;
7693;SDS011;3889;48.162;11.510;2023-03-31T02:18:21;7.63;;;6.10;;
7693;SDS011;3889;48.162;11.510;2023-03-31T02:20:53;7.68;;;5.82;;
7693;SDS011;3889;48.162;11.510;2023-03-31T02:23:23;7.55;;;5.88;;
7693;SDS011;3889;48.162;11.510;2023-03-31T02:25:56;10.60;;;6.47;;
7693;SDS011;3889;48.162;11.510;2023-03-31T02:28:29;7.57;;;6.33;;
7693;SDS011;3889;48.162;11.510;2023-03-31T02:31:05;7.93;;;6.10;;
7693;SDS011;3889;48.162;11.510;2023-03-31T02:33:40;8.02;;;6.15;;
7693;SDS011;3889;48.162;11.510;2023-03-31T02:36:08;6.70;;;5.60;;
7693;SDS011;3889;48.162;11.510;2023-03-31T02:38:37;7.43;;;6.00;;
7693;SDS011;3889;48.162;11.510;2023-03-31T02:41:10;9.23;;;6.05;;
7693;SDS011;3889;48.162;11.510;2023-03-31T02:43:38;7.20;;;5.63;;
7693;SDS011;3889;48.162;11.510;2023-03-31T02:46:06;8.50;;;5.60;;
7693;SDS011;3889;48.162;11.510;2023-03-31T02:48:36;10.67;;;5.77;;
7693;SDS011;3889;48.162;11.510;2023-03-31T02:51:23;7.05;;;5.43;;
7693;SDS011;3889;48.162;11.510;2023-03-31T02:57:22;8.43;;;6.40;;
7693;SDS011;3889;48.162;11.510;2023-03-31T03:00:01;7.57;;;6.00;;
7693;SDS011;3889;48.162;11.510;2023-03-31T03:02:37;8.27;;;6.27;;
7693;SDS011;3889;48.162;11.510;2023-03-31T03:05:18;7.67;;;6.10;;
7693;SDS011;3889;48.162;11.510;2023-03-31T03:07:54;8.32;;;6.20;;
7693;SDS011;3889;48.162;11.510;2023-03-31T03:10:30;6.88;;;5.70;;
7693;SDS011;3889;48.162;11.510;2023-03-31T03:13:07;6.32;;;5.72;;
7693;SDS011;3889;48.162;11.510;2023-03-31T03:15:44;7.60;;;5.70;;
7693;SDS011;3889;48.162;11.510;2023-03-31T03:18:15;9.13;;;6.28;;
7693;SDS011;3889;48.162;11.510;2023-03-31T03:20:43;8.43;;;6.40;;
7693;SDS011;3889;48.162;11.510;2023-03-31T03:23:14;8.27;;;6.15;;
7693;SDS011;3889;48.162;11.510;2023-03-31T03:25:43;7.97;;;6.18;;
7693;SDS011;3889;48.162;11.510;2023-03-31T03:28:12;9.63;;;6.35;;
7693;SDS011;3889;48.162;11.510;2023-03-31T03:30:40;7.93;;;5.80;;
7693;SDS011;3889;48.162;11.510;2023-03-31T03:33:08;8.15;;;5.88;;
7693;SDS011;3889;48.162;11.510;2023-03-31T03:35:36;9.27;;;6.30;;
7693;SDS011;3889;48.162;11.510;2023-03-31T03:38:04;7.95;;;6.07;;
7693;SDS011;3889;48.162;11.510;2023-03-31T03:40:31;8.52;;;6.03;;
7693;SDS011;3889;48.162;11.510;2023-03-31T03:42:59;9.80;;;5.97;;
7693;SDS011;3889;48.162;11.510;2023-03-31T03:45:28;9.83;;;6.37;;
7693;SDS011;3889;48.162;11.510;2023-03-31T03:47:56;9.65;;;6.25;;
7693;SDS011;3889;48.162;11.510;2023-03-31T03:50:24;9.77;;;6.43;;
7693;SDS011;3889;48.162;11.510;2023-03-31T03:52:52;11.73;;;6.60;;
7693;SDS011;3889;48.162;11.510;2023-03-31T03:55:20;8.98;;;6.55;;
7693;SDS011;3889;48.162;11.510;2023-03-31T03:57:48;10.65;;;6.88;;
7693;SDS011;3889;48.162;11.510;2023-03-31T04:00:16;11.00;;;6.60;;
7693;SDS011;3889;48.162;11.510;2023-03-31T04:02:46;8.60;;;7.28;;
7693;SDS011;3889;48.162;11.510;2023-03-31T04:05:13;7.95;;;6.72;;
7693;SDS011;3889;48.162;11.510;2023-03-31T04:07:41;7.47;;;6.43;;
7693;SDS011;3889;48.162;11.510;2023-03-31T04:10:09;9.02;;;6.68;;
7693;SDS011;3889;48.162;11.510;2023-03-31T04:12:37;10.97;;;7.47;;
7693;SDS011;3889;48.162;11.510;2023-03-31T04:15:06;9.00;;;7.03;;
7693;SDS011;3889;48.162;11.510;2023-03-31T04:17:34;9.35;;;7.45;;
7693;SDS011;3889;48.162;11.510;2023-03-31T04:20:04;8.23;;;7.07;;
7693;SDS011;3889;48.162;11.510;2023-03-31T04:22:34;9.38;;;7.20;;
7693;SDS011;3889;48.162;11.510;2023-03-31T04:25:06;10.25;;;7.40;;
7693;SDS011;3889;48.162;11.510;2023-03-31T04:27:39;9.30;;;7.38;;
7693;SDS011;3889;48.162;11.510;2023-03-31T04:30:12;9.82;;;8.00;;
7693;SDS011;3889;48.162;11.510;2023-03-31T04:32:48;10.20;;;7.30;;
7693;SDS011;3889;48.162;11.510;2023-03-31T04:35:18;13.82;;;8.20;;
7693;SDS011;3889;48.162;11.510;2023-03-31T04:37:46;13.98;;;8.30;;
7693;SDS011;3889;48.162;11.510;2023-03-31T04:40:14;11.05;;;8.48;;
7693;SDS011;3889;48.162;11.510;2023-03-31T04:42:43;13.23;;;8.90;;
7693;SDS011;3889;48.162;11.510;2023-03-31T04:45:11;12.02;;;8.65;;
7693;SDS011;3889;48.162;11.510;2023-03-31T04:47:39;12.35;;;9.00;;
7693;SDS011;3889;48.162;11.510;2023-03-31T04:50:07;11.47;;;8.53;;
7693;SDS011;3889;48.162;11.510;2023-03-31T04:52:43;10.05;;;8.55;;
7693;SDS011;3889;48.162;11.510;2023-03-31T04:55:11;11.48;;;9.20;;
7693;SDS011;3889;48.162;11.510;2023-03-31T04:57:39;12.95;;;8.98;;
7693;SDS011;3889;48.162;11.510;2023-03-31T05:00:07;12.70;;;9.60;;
7693;SDS011;3889;48.162;11.510;2023-03-31T05:02:36;11.85;;;9.20;;
7693;SDS011;3889;48.162;11.510;2023-03-31T05:05:04;12.32;;;9.90;;
7693;SDS011;3889;48.162;11.510;2023-03-31T05:07:32;11.05;;;9.05;;
7693;SDS011;3889;48.162;11.510;2023-03-31T05:10:02;11.07;;;9.07;;
7693;SDS011;3889;48.162;11.510;2023-03-31T05:12:32;10.25;;;9.02;;
7693;SDS011;3889;48.162;11.510;2023-03-31T05:15:01;11.68;;;8.93;;
7693;SDS011;3889;48.162;11.510;2023-03-31T05:17:30;9.43;;;8.43;;
7693;SDS011;3889;48.162;11.510;2023-03-31T05:19:58;9.80;;;8.87;;
7693;SDS011;3889;48.162;11.510;2023-03-31T05:22:26;12.10;;;8.95;;
7693;SDS011;3889;48.162;11.510;2023-03-31T05:24:54;11.55;;;9.13;;
7693;SDS011;3889;48.162;11.510;2023-03-31T05:27:23;11.93;;;9.43;;
7693;SDS011;3889;48.162;11.510;2023-03-31T05:29:51;10.90;;;9.40;;
7693;SDS011;3889;48.162;11.510;2023-03-31T05:32:18;12.45;;;9.65;;
7693;SDS011;3889;48.162;11.510;2023-03-31T05:34:46;12.60;;;9.80;;
7693;SDS011;3889;48.162;11.510;2023-03-31T05:37:17;14.00;;;9.93;;
7693;SDS011;3889;48.162;11.510;2023-03-31T05:39:46;13.50;;;9.73;;
7693;SDS011;3889;48.162;11.510;2023-03-31T05:42:14;10.80;;;9.67;;
7693;SDS011;3889;48.162;11.510;2023-03-31T05:44:43;12.68;;;9.77;;
7693;SDS011;3889;48.162;11.510;2023-03-31T05:47:11;13.02;;;9.77;;
7693;SDS011;3889;48.162;11.510;2023-03-31T05:49:39;10.75;;;9.50;;
7693;SDS011;3889;48.162;11.510;2023-03-31T05:52:07;12.27;;;9.38;;
7693;SDS011;3889;48.162;11.510;2023-03-31T05:54:36;11.32;;;9.63;;
7693;SDS011;3889;48.162;11.510;2023-03-31T05:57:03;12.45;;;9.90;;
7693;SDS011;3889;48.162;11.510;2023-03-31T05:59:31;11.63;;;10.03;;
7693;SDS011;3889;48.162;11.510;2023-03-31T06:02:02;12.85;;;10.00;;
7693;SDS011;3889;48.162;11.510;2023-03-31T06:04:31;11.43;;;9.63;;
7693;SDS011;3889;48.162;11.510;2023-03-31T06:06:59;11.05;;;9.93;;
7693;SDS011;3889;48.162;11.510;2023-03-31T06:09:27;11.80;;;10.10;;
7693;SDS011;3889;48.162;11.510;2023-03-31T06:11:55;13.85;;;10.88;;
7693;SDS011;3889;48.162;11.510;2023-03-31T06:14:22;11.53;;;9.80;;
7693;SDS011;3889;48.162;11.510;2023-03-31T06:16:50;11.70;;;9.27;;
7693;SDS011;3889;48.162;11.510;2023-03-31T06:19:22;12.30;;;9.20;;
7693;SDS011;3889;48.162;11.510;2023-03-31T06:21:50;11.25;;;9.27;;
7693;SDS011;3889;48.162;11.510;2023-03-31T06:24:18;12.30;;;9.85;;
7693;SDS011;3889;48.162;11.510;2023-03-31T06:26:46;11.05;;;9.32;;
7693;SDS011;3889;48.162;11.510;2023-03-31T06:29:13;11.83;;;9.17;;
7693;SDS011;3889;48.162;11.510;2023-03-31T06:31:41;11.00;;;8.75;;
7693;SDS011;3889;48.162;11.510;2023-03-31T06:34:09;11.68;;;9.00;;
7693;SDS011;3889;48.162;11.510;2023-03-31T06:36:38;10.68;;;9.15;;
7693;SDS011;3889;48.162;11.510;2023-03-31T06:39:07;10.23;;;8.43;;
7693;SDS011;3889;48.162;11.510;2023-03-31T06:41:34;11.95;;;8.98;;
7693;SDS011;3889;48.162;11.510;2023-03-31T06:44:04;11.07;;;9.32;;
7693;SDS011;3889;48.162;11.510;2023-03-31T06:46:31;12.37;;;9.33;;
7693;SDS011;3889;48.162;11.510;2023-03-31T06:48:59;12.25;;;9.38;;
7693;SDS011;3889;48.162;11.510;2023-03-31T06:51:27;10.27;;;9.00;;
7693;SDS011;3889;48.162;11.510;2023-03-31T06:53:59;11.65;;;9.32;;
7693;SDS011;3889;48.162;11.510;2023-03-31T06:56:27;11.70;;;9.32;;
7693;SDS011;3889;48.162;11.510;2023-03-31T06:58:54;10.52;;;8.45;;
7693;SDS011;3889;48.162;11.510;2023-03-31T07:01:22;10.70;;;8.73;;
7693;SDS011;3889;48.162;11.510;2023-03-31T07:03:50;11.50;;;8.27;;
7693;SDS011;3889;48.162;11.510;2023-03-31T07:06:18;11.23;;;8.60;;
7693;SDS011;3889;48.162;11.510;2023-03-31T07:08:46;13.52;;;9.20;;
7693;SDS011;3889;48.162;11.510;2023-03-31T07:11:15;10.27;;;8.43;;
7693;SDS011;3889;48.162;11.510;2023-03-31T07:13:46;13.33;;;8.83;;
7693;SDS011;3889;48.162;11.510;2023-03-31T07:16:14;10.70;;;8.50;;
7693;SDS011;3889;48.162;11.510;2023-03-31T07:18:42;8.77;;;7.80;;
7693;SDS011;3889;48.162;11.510;2023-03-31T07:21:10;10.15;;;8.27;;
7693;SDS011;3889;48.162;11.510;2023-03-31T07:23:38;9.75;;;8.07;;
7693;SDS011;3889;48.162;11.510;2023-03-31T07:26:06;11.45;;;8.88;;
7693;SDS011;3889;48.162;11.510;2023-03-31T07:28:35;11.07;;;8.70;;
7693;SDS011;3889;48.162;11.510;2023-03-31T07:31:09;11.95;;;9.20;;
7693;SDS011;3889;48.162;11.510;2023-03-31T07:33:37;12.02;;;8.93;;
7693;SDS011;3889;48.162;11.510;2023-03-31T07:36:06;11.60;;;9.80;;
7693;SDS011;3889;48.162;11.510;2023-03-31T07:38:38;12.50;;;9.57;;
7693;SDS011;3889;48.162;11.510;2023-03-31T07:41:09;11.52;;;9.63;;
7693;SDS011;3889;48.162;11.510;2023-03-31T07:43:39;15.70;;;10.30;;
7693;SDS011;3889;48.162;11.510;2023-03-31T07:46:12;12.98;;;10.60;;
7693;SDS011;3889;48.162;11.510;2023-03-31T07:48:42;12.73;;;10.55;;
7693;SDS011;3889;48.162;11.510;2023-03-31T07:51:11;13.48;;;10.45;;
7693;SDS011;3889;48.162;11.510;2023-03-31T07:53:39;11.70;;;10.30;;
7693;SDS011;3889;48.162;11.510;2023-03-31T07:56:07;13.97;;;10.50;;
7693;SDS011;3889;48.162;11.510;2023-03-31T07:58:35;12.35;;;10.60;;
7693;SDS011;3889;48.162;11.510;2023-03-31T08:01:04;12.65;;;10.63;;
7693;SDS011;3889;48.162;11.510;2023-03-31T08:03:33;11.70;;;10.50;;
7693;SDS011;3889;48.162;11.510;2023-03-31T08:06:01;13.27;;;10.10;;
7693;SDS011;3889;48.162;11.510;2023-03-31T08:08:29;13.05;;;10.15;;
7693;SDS011;3889;48.162;11.510;2023-03-31T08:10:59;15.48;;;10.50;;
7693;SDS011;3889;48.162;11.510;2023-03-31T08:13:26;12.75;;;10.25;;
7693;SDS011;3889;48.162;11.510;2023-03-31T08:15:54;11.57;;;10.15;;
7693;SDS011;3889;48.162;11.510;2023-03-31T08:18:24;12.00;;;9.77;;
7693;SDS011;3889;48.162;11.510;2023-03-31T08:20:52;11.82;;;9.30;;
7693;SDS011;3889;48.162;11.510;2023-03-31T08:23:19;10.65;;;9.50;;
7693;SDS011;3889;48.162;11.510;2023-03-31T08:25:47;13.02;;;9.30;;
7693;SDS011;3889;48.162;11.510;2023-03-31T08:28:15;12.30;;;9.10;;
7693;SDS011;3889;48.162;11.510;2023-03-31T08:30:43;12.40;;;9.10;;
7693;SDS011;3889;48.162;11.510;2023-03-31T08:33:11;10.95;;;8.77;;
7693;SDS011;3889;48.162;11.510;2023-03-31T08:35:41;9.20;;;8.10;;
7693;SDS011;3889;48.162;11.510;2023-03-31T08:38:08;9.88;;;8.60;;
7693;SDS011;3889;48.162;11.510;2023-03-31T08:40:36;11.70;;;8.10;;
7693;SDS011;3889;48.162;11.510;2023-03-31T08:43:09;10.63;;;7.83;;
7693;SDS011;3889;48.162;11.510;2023-03-31T08:45:42;10.38;;;7.88;;
7693;SDS011;3889;48.162;11.510;2023-03-31T08:48:16;10.02;;;8.10;;
7693;SDS011;3889;48.162;11.510;2023-03-31T08:50:53;8.32;;;6.38;;
7693;SDS011;3889;48.162;11.510;2023-03-31T08:53:25;6.90;;;6.10;;
7693;SDS011;3889;48.162;11.510;2023-03-31T08:55:56;6.97;;;5.35;;
7693;SDS011;3889;48.162;11.510;2023-03-31T08:58:28;5.28;;;4.65;;
7693;SDS011;3889;48.162;11.510;2023-03-31T09:01:01;5.43;;;4.60;;
7693;SDS011;3889;48.162;11.510;2023-03-31T09:03:36;7.53;;;5.00;;
7693;SDS011;3889;48.162;11.510;2023-03-31T09:06:13;5.75;;;4.35;;
7693;SDS011;3889;48.162;11.510;2023-03-31T09:08:45;5.28;;;4.43;;
7693;SDS011;3889;48.162;11.510;2023-03-31T09:11:24;6.67;;;4.50;;
7693;SDS011;3889;48.162;11.510;2023-03-31T09:14:04;5.43;;;4.60;;
7693;SDS011;3889;48.162;11.510;2023-03-31T09:16:45;5.13;;;4.22;;
7693;SDS011;3889;48.162;11.510;2023-03-31T09:19:19;5.60;;;4.68;;
7693;SDS011;3889;48.162;11.510;2023-03-31T09:21:55;5.20;;;4.43;;
7693;SDS011;3889;48.162;11.510;2023-03-31T09:24:26;4.85;;;4.07;;
7693;SDS011;3889;48.162;11.510;2023-03-31T09:26:59;4.90;;;3.92;;
7693;SDS011;3889;48.162;11.510;2023-03-31T09:29:29;5.10;;;4.00;;
7693;SDS011;3889;48.162;11.510;2023-03-31T09:32:08;5.15;;;3.88;;
7693;SDS011;3889;48.162;11.510;2023-03-31T09:34:41;4.60;;;3.65;;
7693;SDS011;3889;48.162;11.510;2023-03-31T09:37:12;3.70;;;3.10;;
7693;SDS011;3889;48.162;11.510;2023-03-31T09:39:40;4.30;;;3.50;;
7693;SDS011;3889;48.162;11.510;2023-03-31T09:42:09;4.47;;;3.33;;
7693;SDS011;3889;48.162;11.510;2023-03-31T09:44:39;3.92;;;2.72;;
7693;SDS011;3889;48.162;11.510;2023-03-31T09:47:10;3.22;;;2.90;;
7693;SDS011;3889;48.162;11.510;2023-03-31T09:49:43;2.90;;;2.60;;
7693;SDS011;3889;48.162;11.510;2023-03-31T09:52:22;3.47;;;2.90;;
7693;SDS011;3889;48.162;11.510;2023-03-31T09:54:55;4.35;;;2.80;;
7693;SDS011;3889;48.162;11.510;2023-03-31T09:57:26;3.40;;;2.67;;
7693;SDS011;3889;48.162;11.510;2023-03-31T10:00:03;4.25;;;2.63;;
7693;SDS011;3889;48.162;11.510;2023-03-31T10:02:40;3.83;;;2.95;;
7693;SDS011;3889;48.162;11.510;2023-03-31T10:05:18;3.60;;;2.80;;
7693;SDS011;3889;48.162;11.510;2023-03-31T10:08:08;3.67;;;3.10;;
7693;SDS011;3889;48.162;11.510;2023-03-31T10:10:51;3.53;;;2.72;;
7693;SDS011;3889;48.162;11.510;2023-03-31T10:13:22;3.30;;;2.67;;
7693;SDS011;3889;48.162;11.510;2023-03-31T10:15:52;3.95;;;2.83;;
7693;SDS011;3889;48.162;11.510;2023-03-31T10:18:22;4.13;;;2.97;;
7693;SDS011;3889;48.162;11.510;2023-03-31T10:21:00;3.72;;;2.58;;
7693;SDS011;3889;48.162;11.510;2023-03-31T10:23:32;2.90;;;2.60;;
7693;SDS011;3889;48.162;11.510;2023-03-31T10:26:01;5.43;;;2.70;;
7693;SDS011;3889;48.162;11.510;2023-03-31T10:28:31;6.75;;;2.67;;
7693;SDS011;3889;48.162;11.510;2023-03-31T10:31:01;3.53;;;2.70;;
7693;SDS011;3889;48.162;11.510;2023-03-31T10:33:30;4.70;;;2.80;;
7693;SDS011;3889;48.162;11.510;2023-03-31T10:36:01;4.03;;;2.88;;
7693;SDS011;3889;48.162;11.510;2023-03-31T10:38:35;3.20;;;2.90;;
7693;SDS011;3889;48.162;11.510;2023-03-31T10:41:06;3.88;;;2.70;;
7693;SDS011;3889;48.162;11.510;2023-03-31T10:43:36;3.83;;;2.90;;
7693;SDS011;3889;48.162;11.510;2023-03-31T10:46:07;3.78;;;3.00;;
7693;SDS011;3889;48.162;11.510;2023-03-31T10:48:38;4.13;;;3.20;;
7693;SDS011;3889;48.162;11.510;2023-03-31T10:51:10;4.30;;;3.28;;
7693;SDS011;3889;48.162;11.510;2023-03-31T10:53:45;8.30;;;3.60;;
7693;SDS011;3889;48.162;11.510;2023-03-31T10:56:23;4.22;;;3.42;;
7693;SDS011;3889;48.162;11.510;2023-03-31T10:59:07;4.65;;;3.50;;
7693;SDS011;3889;48.162;11.510;2023-03-31T11:01:57;5.45;;;3.15;;
7693;SDS011;3889;48.162;11.510;2023-03-31T11:04:44;5.03;;;3.50;;
7693;SDS011;3889;48.162;11.510;2023-03-31T11:07:20;6.18;;;3.40;;
7693;SDS011;3889;48.162;11.510;2023-03-31T11:09:59;5.40;;;3.73;;
7693;SDS011;3889;48.162;11.510;2023-03-31T11:12:38;5.25;;;3.15;;
7693;SDS011;3889;48.162;11.510;2023-03-31T11:15:13;7.67;;;3.50;;
7693;SDS011;3889;48.162;11.510;2023-03-31T11:17:53;4.93;;;3.67;;
7693;SDS011;3889;48.162;11.510;2023-03-31T11:20:30;4.18;;;3.40;;
7693;SDS011;3889;48.162;11.510;2023-03-31T11:23:06;5.47;;;3.17;;
7693;SDS011;3889;48.162;11.510;2023-03-31T11:25:44;4.07;;;2.13;;
7693;SDS011;3889;48.162;11.510;2023-03-31T11:28:26;2.83;;;2.20;;
7693;SDS011;3889;48.162;11.510;2023-03-31T11:31:13;2.90;;;2.00;;
7693;SDS011;3889;48.162;11.510;2023-03-31T11:36:46;1.80;;;1.30;;
7693;SDS011;3889;48.162;11.510;2023-03-31T11:39:31;1.85;;;1.52;;
7693;SDS011;3889;48.162;11.510;2023-03-31T11:42:12;3.60;;;1.65;;
7693;SDS011;3889;48.162;11.510;2023-03-31T11:44:43;3.03;;;1.80;;
7693;SDS011;3889;48.162;11.510;2023-03-31T11:47:18;2.10;;;1.70;;
7693;SDS011;3889;48.162;11.510;2023-03-31T11:49:51;2.77;;;1.83;;
7693;SDS011;3889;48.162;11.510;2023-03-31T11:52:23;3.10;;;1.70;;
7693;SDS011;3889;48.162;11.510;2023-03-31T11:54:56;3.03;;;1.80;;
7693;SDS011;3889;48.162;11.510;2023-03-31T11:57:30;2.80;;;1.73;;
7693;SDS011;3889;48.162;11.510;2023-03-31T12:00:03;2.60;;;1.95;;
7693;SDS011;3889;48.162;11.510;2023-03-31T12:02:39;2.33;;;1.83;;
7693;SDS011;3889;48.162;11.510;2023-03-31T12:05:12;2.90;;;1.60;;
7693;SDS011;3889;48.162;11.510;2023-03-31T12:07:42;3.72;;;1.92;;
7693;SDS011;3889;48.162;11.510;2023-03-31T12:10:16;2.42;;;1.80;;
7693;SDS011;3889;48.162;11.510;2023-03-31T12:12:48;3.17;;;1.80;;
7693;SDS011;3889;48.162;11.510;2023-03-31T12:15:22;2.30;;;1.58;;
7693;SDS011;3889;48.162;11.510;2023-03-31T12:17:54;2.47;;;1.75;;
7693;SDS011;3889;48.162;11.510;2023-03-31T12:20:28;4.05;;;1.70;;
7693;SDS011;3889;48.162;11.510;2023-03-31T12:23:00;3.53;;;1.65;;
7693;SDS011;3889;48.162;11.510;2023-03-31T12:25:37;2.83;;;1.75;;
7693;SDS011;3889;48.162;11.510;2023-03-31T12:28:12;2.85;;;1.80;;
7693;SDS011;3889;48.162;11.510;2023-03-31T12:30:41;3.17;;;1.55;;
7693;SDS011;3889;48.162;11.510;2023-03-31T12:33:13;2.63;;;1.90;;
7693;SDS011;3889;48.162;11.510;2023-03-31T12:35:48;3.33;;;1.77;;
7693;SDS011;3889;48.162;11.510;2023-03-31T12:38:35;3.30;;;1.75;;
7693;SDS011;3889;48.162;11.510;2023-03-31T12:41:14;3.33;;;1.95;;
7693;SDS011;3889;48.162;11.510;2023-03-31T12:43:59;2.72;;;1.90;;
7693;SDS011;3889;48.162;11.510;2023-03-31T12:46:47;2.92;;;2.00;;
7693;SDS011;3889;48.162;11.510;2023-03-31T12:49:28;2.30;;;1.80;;
7693;SDS011;3889;48.162;11.510;2023-03-31T12:52:07;2.55;;;1.80;;
7693;SDS011;3889;48.162;11.510;2023-03-31T12:54:45;3.35;;;2.30;;
7693;SDS011;3889;48.162;11.510;2023-03-31T12:57:26;4.20;;;2.50;;
7693;SDS011;3889;48.162;11.510;2023-03-31T13:00:14;4.50;;;2.25;;
7693;SDS011;3889;48.162;11.510;2023-03-31T13:02:50;4.93;;;2.30;;
7693;SDS011;3889;48.162;11.510;2023-03-31T13:06:43;4.30;;;2.20;;
7693;SDS011;3889;48.162;11.510;2023-03-31T13:12:10;3.15;;;1.90;;
7693;SDS011;3889;48.162;11.510;2023-03-31T13:14:41;3.47;;;1.70;;
7693;SDS011;3889;48.162;11.510;2023-03-31T13:17:17;2.43;;;1.50;;
7693;SDS011;3889;48.162;11.510;2023-03-31T13:19:50;3.53;;;1.77;;
7693;SDS011;3889;48.162;11.510;2023-03-31T13:22:32;4.88;;;2.03;;
7693;SDS011;3889;48.162;11.510;2023-03-31T13:28:16;3.67;;;1.80;;
7693;SDS011;3889;48.162;11.510;2023-03-31T13:30:58;4.07;;;1.83;;
7693;SDS011;3889;48.162;11.510;2023-03-31T13:39:27;4.18;;;1.70;;
7693;SDS011;3889;48.162;11.510;2023-03-31T13:42:43;2.33;;;1.70;;
7693;SDS011;3889;48.162;11.510;2023-03-31T13:45:37;3.30;;;1.65;;
7693;SDS011;3889;48.162;11.510;2023-03-31T13:48:19;2.93;;;1.83;;
7693;SDS011;3889;48.162;11.510;2023-03-31T13:50:59;4.32;;;1.90;;
7693;SDS011;3889;48.162;11.510;2023-03-31T13:56:52;3.22;;;2.00;;
7693;SDS011;3889;48.162;11.510;2023-03-31T13:59:45;3.40;;;1.93;;
7693;SDS011;3889;48.162;11.510;2023-03-31T14:02:49;2.80;;;1.30;;
7693;SDS011;3889;48.162;11.510;2023-03-31T14:05:29;2.40;;;1.35;;
7693;SDS011;3889;48.162;11.510;2023-03-31T14:08:02;3.20;;;1.17;;
7693;SDS011;3889;48.162;11.510;2023-03-31T14:10:37;2.25;;;1.33;;
7693;SDS011;3889;48.162;11.510;2023-03-31T14:13:08;2.40;;;1.40;;
7693;SDS011;3889;48.162;11.510;2023-03-31T14:15:38;2.35;;;1.38;;
7693;SDS011;3889;48.162;11.510;2023-03-31T14:18:11;2.60;;;1.80;;
7693;SDS011;3889;48.162;11.510;2023-03-31T14:20:44;2.45;;;1.48;;
7693;SDS011;3889;48.162;11.510;2023-03-31T14:23:23;1.95;;;1.30;;
7693;SDS011;3889;48.162;11.510;2023-03-31T14:26:00;3.60;;;1.70;;
7693;SDS011;3889;48.162;11.510;2023-03-31T14:28:44;2.85;;;1.60;;
7693;SDS011;3889;48.162;11.510;2023-03-31T14:31:24;2.90;;;2.00;;
7693;SDS011;3889;48.162;11.510;2023-03-31T14:34:07;4.15;;;1.85;;
7693;SDS011;3889;48.162;11.510;2023-03-31T14:36:47;3.00;;;1.70;;
7693;SDS011;3889;48.162;11.510;2023-03-31T14:39:24;2.90;;;1.77;;
7693;SDS011;3889;48.162;11.510;2023-03-31T14:41:57;5.22;;;2.00;;
7693;SDS011;3889;48.162;11.510;2023-03-31T14:44:28;3.15;;;1.45;;
7693;SDS011;3889;48.162;11.510;2023-03-31T14:46:56;2.50;;;1.30;;
7693;SDS011;3889;48.162;11.510;2023-03-31T14:49:25;1.38;;;1.13;;
7693;SDS011;3889;48.162;11.510;2023-03-31T14:51:57;2.85;;;1.10;;
7693;SDS011;3889;48.162;11.510;2023-03-31T14:54:32;1.90;;;1.10;;
7693;SDS011;3889;48.162;11.510;2023-03-31T14:57:02;1.52;;;1.00;;
7693;SDS011;3889;48.162;11.510;2023-03-31T14:59:32;1.27;;;0.80;;
7693;SDS011;3889;48.162;11.510;2023-03-31T15:02:02;1.80;;;1.33;;
7693;SDS011;3889;48.162;11.510;2023-03-31T15:04:34;1.20;;;0.80;;
7693;SDS011;3889;48.162;11.510;2023-03-31T15:07:10;2.23;;;1.20;;
7693;SDS011;3889;48.162;11.510;2023-03-31T15:09:41;2.13;;;1.40;;
7693;SDS011;3889;48.162;11.510;2023-03-31T15:12:14;2.33;;;1.30;;
7693;SDS011;3889;48.162;11.510;2023-03-31T15:14:45;1.70;;;1.30;;
7693;SDS011;3889;48.162;11.510;2023-03-31T15:17:16;3.30;;;2.00;;
7693;SDS011;3889;48.162;11.510;2023-03-31T15:19:45;2.42;;;1.40;;
7693;SDS011;3889;48.162;11.510;2023-03-31T15:22:18;3.80;;;2.30;;
7693;SDS011;3889;48.162;11.510;2023-03-31T15:24:50;1.83;;;1.40;;
7693;SDS011;3889;48.162;11.510;2023-03-31T15:27:21;1.73;;;1.25;;
7693;SDS011;3889;48.162;11.510;2023-03-31T15:30:03;2.35;;;1.77;;
7693;SDS011;3889;48.162;11.510;2023-03-31T15:32:33;3.10;;;1.70;;
7693;SDS011;3889;48.162;11.510;2023-03-31T15:35:03;4.10;;;1.67;;
7693;SDS011;3889;48.162;11.510;2023-03-31T15:37:48;3.50;;;1.60;;
7693;SDS011;3889;48.162;11.510;2023-03-31T15:40:20;2.53;;;1.55;;
7693;SDS011;3889;48.162;11.510;2023-03-31T15:42:52;2.47;;;1.55;;
7693;SDS011;3889;48.162;11.510;2023-03-31T15:45:35;4.35;;;2.17;;
7693;SDS011;3889;48.162;11.510;2023-03-31T15:48:13;3.17;;;2.08;;
7693;SDS011;3889;48.162;11.510;2023-03-31T15:50:45;2.35;;;1.60;;
7693;SDS011;3889;48.162;11.510;2023-03-31T15:53:24;3.42;;;1.88;;
7693;SDS011;3889;48.162;11.510;2023-03-31T15:55:57;3.25;;;1.70;;
7693;SDS011;3889;48.162;11.510;2023-03-31T15:58:46;4.45;;;1.90;;
7693;SDS011;3889;48.162;11.510;2023-03-31T16:01:20;2.95;;;1.60;;
7693;SDS011;3889;48.162;11.510;2023-03-31T16:03:51;2.67;;;1.40;;